createdAt,value
2023-02-24T00:01:52.748Z,34.40
2023-02-24T00:04:22.209Z,42.37
2023-02-24T00:06:50.335Z,39.53
2023-02-24T00:09:21.538Z,47.97
2023-02-24T00:11:54.416Z,38.50
2023-02-24T00:14:24.758Z,41.00
2023-02-24T00:16:53.881Z,41.97
2023-02-24T00:19:24.584Z,40.70
2023-02-24T00:21:54.369Z,37.47
2023-02-24T00:24:29.745Z,42.73
2023-02-24T00:27:00.573Z,35.97
2023-02-24T00:29:30.180Z,33.47
2023-02-24T00:32:00.946Z,32.33
2023-02-24T00:34:30.971Z,31.97
2023-02-24T00:36:59.941Z,36.70
2023-02-24T00:39:33.165Z,32.77
2023-02-24T00:42:05.866Z,31.60
2023-02-24T00:44:35.812Z,34.33
2023-02-24T00:47:05.093Z,35.23
2023-02-24T00:49:35.960Z,36.77
2023-02-24T00:52:06.690Z,39.10
2023-02-24T00:54:38.198Z,37.90
2023-02-24T00:57:08.314Z,33.87
2023-02-24T00:59:37.192Z,35.50
2023-02-24T01:02:07.243Z,35.43
2023-02-24T01:04:37.672Z,41.70
2023-02-24T01:07:11.151Z,35.27
2023-02-24T01:09:42.709Z,30.50
2023-02-24T01:12:29.537Z,33.13
2023-02-24T01:14:57.624Z,30.37
2023-02-24T01:17:26.437Z,29.80
2023-02-24T01:19:55.210Z,33.83
2023-02-24T01:22:23.959Z,32.33
2023-02-24T01:24:53.609Z,34.80
2023-02-24T01:27:21.715Z,37.57
2023-02-24T01:29:50.267Z,35.03
2023-02-24T01:32:21.062Z,32.40
2023-02-24T01:34:52.606Z,33.07
2023-02-24T01:37:21.448Z,32.77
2023-02-24T01:39:50.229Z,34.20
2023-02-24T01:42:22.229Z,36.50
2023-02-24T01:45:22.887Z,32.97
2023-02-24T01:47:52.744Z,32.07
2023-02-24T01:50:23.506Z,33.23
2023-02-24T01:52:56.806Z,31.90
2023-02-24T01:55:29.260Z,34.93
2023-02-24T01:58:01.846Z,31.50
2023-02-24T02:00:37.842Z,35.90
2023-02-24T02:03:12.416Z,30.00
2023-02-24T02:05:42.353Z,34.07
2023-02-24T02:08:11.508Z,33.63
2023-02-24T02:10:44.308Z,36.77
2023-02-24T02:13:16.798Z,37.00
2023-02-24T02:15:57.083Z,34.07
2023-02-24T02:18:35.973Z,36.53
2023-02-24T02:21:56.776Z,42.00
2023-02-24T02:24:49.573Z,34.07
2023-02-24T02:27:32.149Z,31.07
2023-02-24T02:30:45.999Z,33.07
2023-02-24T02:33:53.533Z,31.17
2023-02-24T02:36:28.141Z,37.07
2023-02-24T02:39:05.848Z,36.23
2023-02-24T02:41:41.413Z,36.00
2023-02-24T02:44:13.048Z,36.57
2023-02-24T02:46:46.245Z,32.77
2023-02-24T02:49:20.928Z,32.43
2023-02-24T02:51:54.097Z,33.60
2023-02-24T02:54:29.422Z,32.33
2023-02-24T02:57:03.307Z,37.40
2023-02-24T02:59:33.855Z,37.57
2023-02-24T03:02:11.855Z,32.97
2023-02-24T03:04:43.558Z,31.17
2023-02-24T03:07:17.805Z,37.07
2023-02-24T03:09:52.011Z,34.13
2023-02-24T03:12:23.544Z,34.93
2023-02-24T03:14:57.573Z,33.47
2023-02-24T03:17:28.226Z,33.30
2023-02-24T03:20:02.322Z,32.37
2023-02-24T03:22:37.587Z,33.00
2023-02-24T03:25:07.054Z,35.23
2023-02-24T03:27:48.972Z,38.97
2023-02-24T03:30:22.599Z,36.97
2023-02-24T03:32:56.935Z,33.50
2023-02-24T03:35:30.453Z,39.50
2023-02-24T03:38:01.589Z,37.73
2023-02-24T03:40:35.037Z,42.57
2023-02-24T03:43:09.351Z,39.70
2023-02-24T03:45:39.485Z,38.70
2023-02-24T03:48:11.989Z,40.60
2023-02-24T03:50:42.106Z,50.07
2023-02-24T03:53:41.781Z,43.57
2023-02-24T03:56:23.566Z,39.63
2023-02-24T03:59:06.274Z,42.13
2023-02-24T04:01:43.453Z,43.90
2023-02-24T04:04:27.537Z,41.73
2023-02-24T04:07:12.965Z,37.20
2023-02-24T04:09:48.503Z,42.17
2023-02-24T04:12:23.173Z,36.10
2023-02-24T04:15:04.698Z,42.50
2023-02-24T04:17:39.590Z,35.93
2023-02-24T04:20:13.549Z,42.13
2023-02-24T04:22:50.103Z,39.33
2023-02-24T04:25:24.860Z,38.40
2023-02-24T04:27:56.853Z,36.77
2023-02-24T04:30:28.229Z,41.07
2023-02-24T04:32:57.693Z,36.67
2023-02-24T04:35:28.014Z,38.70
2023-02-24T04:37:58.155Z,37.57
2023-02-24T04:40:28.578Z,35.60
2023-02-24T04:42:56.741Z,34.67
2023-02-24T04:45:27.541Z,35.60
2023-02-24T04:48:00.975Z,35.53
2023-02-24T04:50:32.801Z,33.23
2023-02-24T04:53:02.655Z,33.43
2023-02-24T04:55:34.193Z,38.93
2023-02-24T04:58:03.019Z,33.90
2023-02-24T05:00:35.923Z,41.33
2023-02-24T05:03:06.136Z,32.20
2023-02-24T05:05:34.765Z,34.23
2023-02-24T05:08:04.815Z,34.13
2023-02-24T05:10:41.000Z,37.87
2023-02-24T05:13:11.017Z,36.27
2023-02-24T05:15:41.904Z,32.50
2023-02-24T05:18:14.218Z,41.87
2023-02-24T05:21:03.371Z,36.57
2023-02-24T05:23:34.216Z,37.17
2023-02-24T05:26:09.059Z,39.83
2023-02-24T05:28:38.362Z,39.77
2023-02-24T05:31:09.458Z,42.90
2023-02-24T05:33:38.897Z,36.37
2023-02-24T05:36:09.973Z,37.17
2023-02-24T05:38:39.106Z,35.27
2023-02-24T05:41:15.165Z,35.37
2023-02-24T05:43:48.222Z,34.50
2023-02-24T05:46:16.881Z,37.03
2023-02-24T05:48:45.272Z,38.80
2023-02-24T05:51:13.646Z,37.43
2023-02-24T05:53:42.548Z,40.07
2023-02-24T05:56:12.576Z,42.37
2023-02-24T05:58:40.903Z,34.47
2023-02-24T06:01:16.409Z,35.10
2023-02-24T06:03:48.080Z,41.57
2023-02-24T06:06:16.904Z,38.67
2023-02-24T06:08:50.647Z,36.57
2023-02-24T06:11:21.766Z,36.90
2023-02-24T06:13:50.480Z,35.90
2023-02-24T06:16:19.929Z,37.13
2023-02-24T06:18:51.022Z,33.67
2023-02-24T06:21:20.086Z,37.37
2023-02-24T06:23:48.552Z,38.50
2023-02-24T06:26:19.607Z,40.77
2023-02-24T06:28:50.030Z,33.13
2023-02-24T06:31:18.271Z,34.90
2023-02-24T06:33:46.502Z,37.33
2023-02-24T06:36:15.657Z,36.53
2023-02-24T06:38:44.017Z,36.77
2023-02-24T06:41:12.199Z,37.00
2023-02-24T06:43:41.360Z,39.37
2023-02-24T06:46:13.272Z,38.00
2023-02-24T06:48:41.776Z,40.30
2023-02-24T06:51:13.767Z,36.20
2023-02-24T06:53:43.345Z,35.03
2023-02-24T06:56:15.933Z,33.80
2023-02-24T06:58:45.259Z,33.60
2023-02-24T07:01:16.791Z,34.00
2023-02-24T07:04:03.359Z,36.17
2023-02-24T07:06:34.832Z,30.27
2023-02-24T07:09:07.200Z,36.33
2023-02-24T07:11:36.714Z,37.10
2023-02-24T07:14:06.647Z,34.13
2023-02-24T07:16:37.451Z,35.23
2023-02-24T07:19:11.279Z,34.10
2023-02-24T07:21:40.910Z,30.57
2023-02-24T07:24:09.847Z,32.50
2023-02-24T07:26:41.713Z,37.43
2023-02-24T07:29:11.500Z,34.83
2023-02-24T07:31:43.058Z,37.37
2023-02-24T07:34:15.131Z,37.50
2023-02-24T07:36:50.241Z,35.67
2023-02-24T07:39:19.606Z,34.50
2023-02-24T07:41:49.727Z,38.47
2023-02-24T07:44:20.262Z,36.10
2023-02-24T07:46:50.294Z,32.40
2023-02-24T07:49:20.740Z,41.30
2023-02-24T07:51:52.685Z,37.70
2023-02-24T07:54:22.292Z,38.83
2023-02-24T07:56:57.756Z,35.73
2023-02-24T07:59:27.472Z,33.63
2023-02-24T08:01:57.493Z,33.57
2023-02-24T08:04:27.906Z,34.70
2023-02-24T08:07:03.096Z,39.20
2023-02-24T08:10:09.071Z,37.60
2023-02-24T08:12:42.756Z,33.53
2023-02-24T08:15:22.160Z,34.07
2023-02-24T08:17:53.272Z,30.07
2023-02-24T08:20:26.167Z,31.70
2023-02-24T08:22:55.892Z,33.63
2023-02-24T08:25:35.554Z,32.50
2023-02-24T08:28:09.511Z,35.57
2023-02-24T08:30:40.323Z,37.93
2023-02-24T08:33:16.051Z,37.90
2023-02-24T08:35:45.641Z,36.45
2023-02-24T08:38:17.028Z,33.17
2023-02-24T08:40:55.037Z,34.97
2023-02-24T08:43:33.144Z,35.55
2023-02-24T08:46:06.615Z,33.85
2023-02-24T08:48:38.340Z,32.45
2023-02-24T08:51:11.718Z,32.35
2023-02-24T08:53:41.518Z,32.47
2023-02-24T08:56:12.830Z,37.38
2023-02-24T08:58:47.410Z,30.27
2023-02-24T09:01:24.357Z,30.48
2023-02-24T09:03:57.435Z,29.00
2023-02-24T09:06:35.684Z,32.75
2023-02-24T09:09:20.857Z,35.17
2023-02-24T09:11:50.877Z,28.17
2023-02-24T09:14:28.961Z,31.38
2023-02-24T09:17:06.541Z,28.48
2023-02-24T09:20:01.846Z,24.30
2023-02-24T09:22:57.377Z,23.88
2023-02-24T09:25:40.673Z,28.55
2023-02-24T09:28:17.189Z,25.33
2023-02-24T09:30:54.475Z,24.17
2023-02-24T09:33:25.693Z,24.95
2023-02-24T09:36:14.354Z,21.02
2023-02-24T09:39:02.380Z,22.20
2023-02-24T09:41:53.749Z,20.05
2023-02-24T09:44:29.654Z,24.38
2023-02-24T09:47:09.177Z,23.83
2023-02-24T09:49:48.151Z,23.42
2023-02-24T09:52:19.714Z,20.92
2023-02-24T09:55:10.743Z,19.10
2023-02-24T09:58:13.078Z,19.48
2023-02-24T10:00:46.975Z,20.50
2023-02-24T10:03:41.678Z,16.42
2023-02-24T10:06:20.982Z,18.77
2023-02-24T10:08:58.847Z,20.05
2023-02-24T10:11:35.385Z,20.20
2023-02-24T10:14:07.565Z,14.23
2023-02-24T10:16:44.464Z,16.00
2023-02-24T10:19:24.322Z,14.73
2023-02-24T10:22:02.841Z,18.50
2023-02-24T10:24:38.745Z,13.55
2023-02-24T10:27:17.769Z,20.02
2023-02-24T10:30:05.023Z,18.25
2023-02-24T10:32:42.612Z,22.02
2023-02-24T10:35:17.719Z,16.83
2023-02-24T10:37:46.249Z,15.38
2023-02-24T10:40:26.591Z,20.33
2023-02-24T10:43:10.600Z,17.77
2023-02-24T10:45:45.304Z,20.13
2023-02-24T10:48:40.362Z,19.98
2023-02-24T10:51:20.174Z,18.45
2023-02-24T10:54:05.110Z,21.30
2023-02-24T10:56:44.559Z,18.65
2023-02-24T10:59:41.335Z,16.27
2023-02-24T11:02:29.813Z,17.38
2023-02-24T11:05:20.154Z,18.05
2023-02-24T11:07:54.128Z,13.50
2023-02-24T11:10:32.566Z,20.67
2023-02-24T11:13:19.972Z,15.88
2023-02-24T11:16:08.310Z,15.43
2023-02-24T11:18:39.249Z,14.88
2023-02-24T11:21:12.158Z,15.65
2023-02-24T11:23:43.388Z,14.25
2023-02-24T11:26:17.900Z,12.82
2023-02-24T11:28:59.540Z,15.27
2023-02-24T11:31:45.835Z,12.90
2023-02-24T11:34:24.675Z,16.20
2023-02-24T11:37:00.562Z,14.60
2023-02-24T11:39:45.651Z,15.75
2023-02-24T11:42:17.878Z,14.52
2023-02-24T11:44:54.568Z,14.43
2023-02-24T11:47:29.176Z,14.30
2023-02-24T11:50:06.681Z,13.40
2023-02-24T11:52:39.694Z,13.15
2023-02-24T11:55:21.455Z,12.95
2023-02-24T11:57:53.777Z,16.63
2023-02-24T12:00:28.077Z,15.10
2023-02-24T12:03:04.166Z,13.18
2023-02-24T12:05:37.287Z,13.15
2023-02-24T12:08:11.726Z,16.80
2023-02-24T12:10:47.655Z,11.10
2023-02-24T12:13:22.682Z,13.52
2023-02-24T12:15:59.346Z,12.95
2023-02-24T12:18:34.410Z,12.32
2023-02-24T12:21:07.276Z,11.40
2023-02-24T12:23:37.635Z,12.20
2023-02-24T12:26:18.433Z,14.43
2023-02-24T12:29:02.859Z,10.48
2023-02-24T12:31:42.938Z,13.13
2023-02-24T12:34:16.440Z,16.20
2023-02-24T12:37:07.762Z,12.77
2023-02-24T12:39:48.607Z,13.00
2023-02-24T12:42:26.310Z,14.35
2023-02-24T12:45:02.498Z,15.88
2023-02-24T12:47:44.851Z,12.25
2023-02-24T12:50:38.987Z,14.27
2023-02-24T12:53:17.482Z,12.52
2023-02-24T12:55:55.435Z,12.88
2023-02-24T12:58:27.865Z,11.82
2023-02-24T13:01:08.528Z,11.63
2023-02-24T13:04:05.174Z,13.10
2023-02-24T13:06:48.314Z,12.57
2023-02-24T13:09:23.778Z,13.77
2023-02-24T13:11:59.221Z,14.02
2023-02-24T13:14:31.842Z,12.18
2023-02-24T13:17:19.915Z,13.75
2023-02-24T13:19:52.332Z,11.90
2023-02-24T13:22:29.940Z,12.57
2023-02-24T13:25:12.018Z,12.07
2023-02-24T13:27:43.739Z,11.88
2023-02-24T13:30:28.448Z,11.25
2023-02-24T13:33:06.954Z,13.52
2023-02-24T13:35:38.504Z,15.02
2023-02-24T13:38:23.581Z,14.50
2023-02-24T13:40:52.303Z,12.27
2023-02-24T13:43:27.197Z,12.52
2023-02-24T13:45:59.537Z,13.50
2023-02-24T13:48:43.786Z,13.57
2023-02-24T13:51:29.498Z,15.05
2023-02-24T13:54:12.259Z,14.30
2023-02-24T13:56:45.983Z,10.88
2023-02-24T13:59:49.732Z,14.88
2023-02-24T14:02:20.968Z,11.13
2023-02-24T14:04:51.703Z,11.18
2023-02-24T14:07:25.620Z,11.60
2023-02-24T14:09:58.052Z,12.27
2023-02-24T14:12:28.225Z,11.88
2023-02-24T14:14:57.817Z,12.05
2023-02-24T14:17:30.388Z,10.98
2023-02-24T14:20:14.349Z,10.30
2023-02-24T14:22:47.829Z,14.80
2023-02-24T14:25:17.248Z,13.02
2023-02-24T14:27:48.419Z,14.15
2023-02-24T14:30:25.535Z,12.35
2023-02-24T14:32:54.941Z,12.50
2023-02-24T14:35:30.214Z,14.77
2023-02-24T14:38:01.998Z,11.13
2023-02-24T14:40:30.947Z,13.93
2023-02-24T14:43:00.322Z,13.68
2023-02-24T14:45:30.881Z,15.02
2023-02-24T14:47:59.614Z,16.73
2023-02-24T14:50:31.474Z,11.23
2023-02-24T14:53:05.088Z,13.38
2023-02-24T14:55:37.205Z,14.88
2023-02-24T14:58:12.738Z,11.50
2023-02-24T15:00:58.391Z,13.88
2023-02-24T15:03:31.506Z,10.48
2023-02-24T15:06:06.126Z,13.93
2023-02-24T15:08:39.916Z,14.02
2023-02-24T15:11:19.806Z,11.48
2023-02-24T15:13:51.245Z,13.18
2023-02-24T15:16:23.384Z,14.32
2023-02-24T15:18:53.749Z,13.88
2023-02-24T15:21:29.030Z,14.77
2023-02-24T15:24:03.138Z,15.32
2023-02-24T15:26:34.726Z,15.57
2023-02-24T15:29:13.113Z,14.15
2023-02-24T15:31:41.917Z,19.05
2023-02-24T15:34:21.343Z,12.60
2023-02-24T15:36:53.795Z,15.32
2023-02-24T15:39:28.453Z,15.10
2023-02-24T15:42:09.569Z,14.93
2023-02-24T15:44:38.823Z,13.73
2023-02-24T15:47:23.356Z,13.53
2023-02-24T15:49:51.923Z,17.20
2023-02-24T15:52:24.605Z,16.03
2023-02-24T15:54:56.706Z,14.03
2023-02-24T15:57:25.596Z,14.60
2023-02-24T15:59:54.743Z,20.57
2023-02-24T16:02:25.800Z,18.17
2023-02-24T16:04:54.233Z,19.43
2023-02-24T16:07:26.510Z,17.07
2023-02-24T16:09:58.447Z,18.90
2023-02-24T16:12:31.923Z,16.27
2023-02-24T16:15:04.653Z,18.37
2023-02-24T16:17:37.761Z,16.73
2023-02-24T16:20:09.358Z,17.60
2023-02-24T16:22:38.128Z,14.70
2023-02-24T16:25:09.169Z,16.80
2023-02-24T16:27:37.613Z,16.00
2023-02-24T16:30:07.027Z,18.27
2023-02-24T16:32:35.756Z,19.07
2023-02-24T16:35:08.720Z,16.13
2023-02-24T16:37:38.259Z,19.17
2023-02-24T16:40:21.463Z,18.30
2023-02-24T16:42:51.807Z,17.87
2023-02-24T16:45:23.814Z,15.83
2023-02-24T16:47:52.354Z,20.97
2023-02-24T16:50:24.470Z,14.30
2023-02-24T16:52:52.775Z,17.33
2023-02-24T16:55:22.368Z,16.87
2023-02-24T16:57:50.910Z,13.60
2023-02-24T17:00:23.896Z,21.33
2023-02-24T17:02:53.083Z,19.80
2023-02-24T17:05:23.748Z,13.70
2023-02-24T17:07:55.292Z,15.13
2023-02-24T17:10:26.811Z,18.20
2023-02-24T17:12:58.325Z,17.33
2023-02-24T17:15:27.843Z,20.57
2023-02-24T17:17:56.913Z,14.37
2023-02-24T17:20:25.631Z,23.00
2023-02-24T17:22:54.209Z,26.13
2023-02-24T17:25:27.351Z,17.37
2023-02-24T17:28:00.685Z,14.67
2023-02-24T17:30:31.930Z,15.60
2023-02-24T17:33:03.721Z,17.77
2023-02-24T17:35:32.542Z,17.37
2023-02-24T17:38:01.751Z,12.23
2023-02-24T17:40:31.777Z,18.27
2023-02-24T17:43:00.426Z,16.67
2023-02-24T17:45:29.072Z,19.93
2023-02-24T17:47:57.674Z,16.30
2023-02-24T17:50:28.160Z,15.67
2023-02-24T17:52:58.834Z,19.03
2023-02-24T17:55:28.209Z,15.70
2023-02-24T17:58:00.706Z,17.87
2023-02-24T18:00:32.265Z,18.70
2023-02-24T18:03:03.378Z,19.90
2023-02-24T18:05:32.815Z,17.50
2023-02-24T18:08:01.934Z,20.03
2023-02-24T18:10:31.708Z,18.70
2023-02-24T18:13:03.485Z,18.03
2023-02-24T18:15:33.272Z,17.30
2023-02-24T18:18:05.416Z,19.77
2023-02-24T18:20:37.265Z,17.87
2023-02-24T18:23:06.845Z,14.83
2023-02-24T18:25:36.579Z,18.03
2023-02-24T18:28:09.283Z,14.47
2023-02-24T18:30:41.480Z,17.80
2023-02-24T18:33:12.041Z,16.13
2023-02-24T18:35:41.414Z,15.17
2023-02-24T18:38:12.238Z,14.77
2023-02-24T18:40:41.842Z,16.60
2023-02-24T18:43:12.057Z,16.30
2023-02-24T18:45:41.950Z,18.57
2023-02-24T18:48:12.209Z,20.47
2023-02-24T18:50:41.612Z,16.77
2023-02-24T18:53:11.101Z,18.67
2023-02-24T18:55:40.440Z,18.67
2023-02-24T18:58:09.353Z,20.77
2023-02-24T19:00:42.050Z,22.60
2023-02-24T19:03:12.369Z,25.03
2023-02-24T19:05:42.089Z,20.87
2023-02-24T19:08:11.576Z,19.93
2023-02-24T19:10:40.905Z,20.03
2023-02-24T19:13:10.437Z,23.07
2023-02-24T19:15:42.139Z,29.23
2023-02-24T19:18:12.261Z,23.87
2023-02-24T19:20:45.452Z,21.83
2023-02-24T19:23:14.975Z,19.80
2023-02-24T19:25:45.585Z,20.50
2023-02-24T19:28:17.209Z,22.10
2023-02-24T19:30:47.989Z,19.47
2023-02-24T19:33:17.781Z,17.17
2023-02-24T19:35:47.908Z,19.53
2023-02-24T19:38:22.040Z,18.97
2023-02-24T19:40:51.758Z,21.00
2023-02-24T19:43:21.549Z,25.37
2023-02-24T19:45:52.457Z,21.30
2023-02-24T19:48:22.076Z,23.50
2023-02-24T19:50:52.730Z,14.27
2023-02-24T19:53:22.234Z,18.17
2023-02-24T19:55:52.305Z,19.60
2023-02-24T19:58:25.513Z,22.40
2023-02-24T20:01:02.086Z,19.60
2023-02-24T20:03:31.517Z,23.60
2023-02-24T20:06:04.850Z,20.10
2023-02-24T20:08:37.527Z,19.67
2023-02-24T20:11:07.941Z,21.53
2023-02-24T20:13:37.146Z,17.00
2023-02-24T20:16:11.234Z,18.00
2023-02-24T20:18:41.197Z,18.30
2023-02-24T20:21:18.835Z,22.87
2023-02-24T20:23:50.176Z,17.80
2023-02-24T20:26:20.957Z,17.20
2023-02-24T20:28:52.507Z,14.63
2023-02-24T20:31:26.969Z,15.73
2023-02-24T20:33:58.777Z,18.17
2023-02-24T20:36:30.621Z,22.13
2023-02-24T20:39:04.185Z,18.03
2023-02-24T20:41:34.960Z,20.17
2023-02-24T20:44:05.967Z,15.40
2023-02-24T20:46:39.381Z,21.53
2023-02-24T20:49:13.476Z,20.63
2023-02-24T20:51:43.709Z,20.17
2023-02-24T20:54:14.925Z,16.30
2023-02-24T20:56:45.923Z,16.03
2023-02-24T20:59:16.778Z,20.37
2023-02-24T21:01:48.973Z,21.67
2023-02-24T21:04:21.579Z,20.23
2023-02-24T21:06:52.391Z,22.53
2023-02-24T21:09:21.631Z,22.13
2023-02-24T21:11:51.880Z,19.07
2023-02-24T21:14:23.598Z,19.80
2023-02-24T21:16:56.224Z,24.37
2023-02-24T21:19:26.617Z,25.07
2023-02-24T21:21:55.192Z,19.67
2023-02-24T21:24:24.203Z,22.23
2023-02-24T21:26:53.504Z,25.33
2023-02-24T21:29:22.220Z,20.77
2023-02-24T21:31:56.086Z,18.00
2023-02-24T21:34:25.135Z,23.00
2023-02-24T21:36:53.796Z,22.10
2023-02-24T21:39:23.125Z,25.23
2023-02-24T21:41:53.224Z,24.83
2023-02-24T21:44:21.395Z,20.30
2023-02-24T21:46:49.953Z,19.80
2023-02-24T21:49:20.089Z,24.37
2023-02-24T21:51:52.028Z,23.03
2023-02-24T21:54:20.737Z,21.57
2023-02-24T21:56:49.423Z,23.83
2023-02-24T21:59:17.814Z,19.97
2023-02-24T22:01:47.208Z,20.27
2023-02-24T22:04:19.151Z,18.13
2023-02-24T22:06:49.192Z,19.17
2023-02-24T22:09:20.192Z,23.50
2023-02-24T22:11:49.548Z,22.40
2023-02-24T22:14:18.050Z,16.70
2023-02-24T22:16:46.413Z,21.07
2023-02-24T22:19:14.796Z,18.87
2023-02-24T22:21:43.254Z,22.40
2023-02-24T22:24:16.131Z,28.07
2023-02-24T22:26:44.814Z,20.40
2023-02-24T22:29:13.108Z,24.80
2023-02-24T22:31:43.832Z,17.67
2023-02-24T22:34:13.181Z,24.70
2023-02-24T22:36:41.510Z,24.20
2023-02-24T22:39:09.721Z,28.47
2023-02-24T22:41:39.370Z,22.40
2023-02-24T22:44:08.169Z,26.17
2023-02-24T22:46:38.173Z,23.63
2023-02-24T22:49:06.632Z,28.27
2023-02-24T22:51:35.360Z,26.53
2023-02-24T22:54:06.834Z,25.33
2023-02-24T22:56:35.836Z,22.67
2023-02-24T22:59:05.391Z,29.23
2023-02-24T23:01:48.018Z,29.47
2023-02-24T23:04:18.252Z,27.10
2023-02-24T23:06:47.608Z,28.60
2023-02-24T23:09:19.905Z,35.37
2023-02-24T23:11:49.006Z,24.70
2023-02-24T23:14:18.961Z,24.40
2023-02-24T23:16:53.669Z,24.60
2023-02-24T23:19:22.212Z,24.13
2023-02-24T23:21:52.405Z,29.80
2023-02-24T23:24:21.759Z,25.37
2023-02-24T23:26:54.008Z,27.63
2023-02-24T23:29:24.007Z,27.80
2023-02-24T23:31:53.068Z,28.43
2023-02-24T23:34:21.379Z,29.13
2023-02-24T23:36:49.890Z,26.43
2023-02-24T23:39:20.769Z,29.60
2023-02-24T23:41:49.506Z,26.30
2023-02-24T23:44:17.669Z,26.17
2023-02-24T23:46:47.279Z,29.33
2023-02-24T23:49:15.987Z,24.40
2023-02-24T23:51:48.546Z,23.33
2023-02-24T23:54:17.496Z,25.47
2023-02-24T23:56:46.580Z,25.40
2023-02-24T23:59:15.263Z,26.80
